createdAt,value
2018-02-24T00:00:33.485Z,-0.90
2018-02-24T00:03:03.850Z,-0.90
2018-02-24T00:05:34.291Z,-0.90
2018-02-24T00:08:03.603Z,-0.90
2018-02-24T00:10:32.906Z,-0.80
2018-02-24T00:13:02.258Z,-0.90
2018-02-24T00:15:31.589Z,-0.90
2018-02-24T00:18:01.954Z,-0.80
2018-02-24T00:20:31.294Z,-0.80
2018-02-24T00:23:00.641Z,-0.80
2018-02-24T00:25:31.041Z,-0.80
2018-02-24T00:28:00.477Z,-0.80
2018-02-24T00:30:30.798Z,-0.80
2018-02-24T00:33:00.050Z,-0.90
2018-02-24T00:35:28.966Z,-0.90
2018-02-24T00:37:57.915Z,-0.90
2018-02-24T00:40:27.060Z,-0.90
2018-02-24T00:42:55.787Z,-0.80
2018-02-24T00:45:24.498Z,-0.90
2018-02-24T00:47:54.958Z,-0.90
2018-02-24T00:50:24.457Z,-0.90
2018-02-24T00:52:53.951Z,-0.90
2018-02-24T00:55:23.142Z,-0.80
2018-02-24T00:57:53.056Z,-0.80
2018-02-24T01:00:22.861Z,-0.90
2018-02-24T01:02:51.480Z,-0.90
2018-02-24T01:05:20.849Z,-0.90
2018-02-24T01:07:50.989Z,-0.90
2018-02-24T01:10:20.278Z,-0.90
2018-02-24T01:12:49.630Z,-0.90
2018-02-24T01:15:18.991Z,-0.90
2018-02-24T01:17:48.333Z,-0.90
2018-02-24T01:20:16.949Z,-0.90
2018-02-24T01:22:46.039Z,-1.00
2018-02-24T01:25:14.686Z,-1.00
2018-02-24T01:27:43.802Z,-1.00
2018-02-24T01:30:12.576Z,-1.00
2018-02-24T01:32:41.302Z,-1.00
2018-02-24T01:35:09.974Z,-0.90
2018-02-24T01:37:39.184Z,-0.90
2018-02-24T01:40:08.518Z,-0.90
2018-02-24T01:42:38.141Z,-1.00
2018-02-24T01:45:07.215Z,-1.00
2018-02-24T01:47:36.594Z,-0.90
2018-02-24T01:50:05.944Z,-1.00
2018-02-24T01:52:35.342Z,-1.00
2018-02-24T01:55:04.662Z,-0.90
2018-02-24T01:57:33.293Z,-0.90
2018-02-24T02:00:02.359Z,-0.80
2018-02-24T02:02:31.707Z,-0.80
2018-02-24T02:05:01.055Z,-0.80
2018-02-24T02:07:30.427Z,-0.80
2018-02-24T02:09:59.791Z,-0.90
2018-02-24T02:12:29.137Z,-0.90
2018-02-24T02:14:58.764Z,-0.90
2018-02-24T02:17:28.139Z,-0.90
2018-02-24T02:19:57.205Z,-1.00
2018-02-24T02:22:26.562Z,-0.90
2018-02-24T02:24:55.937Z,-0.90
2018-02-24T02:27:25.302Z,-0.90
2018-02-24T02:29:54.661Z,-1.00
2018-02-24T02:32:24.285Z,-1.00
2018-02-24T02:34:53.026Z,-1.00
2018-02-24T02:37:22.716Z,-1.00
2018-02-24T02:39:52.087Z,-1.00
2018-02-24T02:42:21.739Z,-0.90
2018-02-24T02:44:50.841Z,-1.00
2018-02-24T02:47:20.185Z,-1.00
2018-02-24T02:49:49.650Z,-1.00
2018-02-24T02:52:18.888Z,-1.00
2018-02-24T02:57:21.671Z,-1.00
2018-02-24T02:59:51.008Z,-0.90
2018-02-24T03:02:20.632Z,-0.90
2018-02-24T03:04:49.735Z,-0.90
2018-02-24T03:07:19.095Z,-0.90
2018-02-24T03:09:48.465Z,-0.90
2018-02-24T03:12:17.820Z,-0.90
2018-02-24T03:14:47.170Z,-0.90
2018-02-24T03:17:16.540Z,-1.00
2018-02-24T03:19:46.901Z,-0.80
2018-02-24T03:22:16.253Z,-0.80
2018-02-24T03:24:45.753Z,-0.90
2018-02-24T03:27:15.982Z,-1.00
2018-02-24T03:29:45.354Z,-1.00
2018-02-24T03:32:14.718Z,-1.00
2018-02-24T03:34:44.102Z,-1.00
2018-02-24T03:37:13.453Z,-1.00
2018-02-24T03:39:42.041Z,-1.10
2018-02-24T03:42:10.678Z,-1.10
2018-02-24T03:44:39.338Z,-1.10
2018-02-24T03:47:08.126Z,-1.20
2018-02-24T03:49:37.218Z,-1.20
2018-02-24T03:52:06.566Z,-1.20
2018-02-24T03:54:36.033Z,-1.10
2018-02-24T03:57:05.629Z,-1.20
2018-02-24T03:59:34.719Z,-1.20
2018-02-24T04:02:04.042Z,-1.20
2018-02-24T04:04:32.662Z,-1.20
2018-02-24T04:07:01.740Z,-1.10
2018-02-24T04:09:31.382Z,-1.10
2018-02-24T04:12:00.590Z,-1.10
2018-02-24T04:14:29.811Z,-1.10
2018-02-24T04:16:59.170Z,-1.10
2018-02-24T04:19:27.799Z,-1.00
2018-02-24T04:21:56.902Z,-1.00
2018-02-24T04:24:26.249Z,-1.00
2018-02-24T04:26:55.602Z,-1.10
2018-02-24T04:29:24.956Z,-1.20
2018-02-24T04:31:54.335Z,-1.30
2018-02-24T04:34:23.682Z,-1.30
2018-02-24T04:36:53.268Z,-1.30
2018-02-24T04:39:23.412Z,-1.30
2018-02-24T04:41:52.773Z,-1.30
2018-02-24T04:44:22.122Z,-1.30
2018-02-24T04:46:51.470Z,-1.30
2018-02-24T04:49:20.839Z,-1.30
2018-02-24T04:51:51.908Z,-1.40
2018-02-24T04:54:20.850Z,-1.40
2018-02-24T04:56:49.925Z,-1.40
2018-02-24T04:59:19.278Z,-1.40
2018-02-24T05:01:48.647Z,-1.40
2018-02-24T05:04:18.302Z,-1.30
2018-02-24T05:06:47.370Z,-1.40
2018-02-24T05:09:16.082Z,-1.30
2018-02-24T05:11:45.817Z,-1.30
2018-02-24T05:14:14.736Z,-1.30
2018-02-24T05:16:44.828Z,-1.30
2018-02-24T05:19:14.194Z,-1.30
2018-02-24T05:21:43.551Z,-1.30
2018-02-24T05:24:12.919Z,-1.30
2018-02-24T05:26:42.258Z,-1.30
2018-02-24T05:29:11.890Z,-1.40
2018-02-24T05:31:40.992Z,-1.50
2018-02-24T05:34:09.925Z,-1.50
2018-02-24T05:36:38.898Z,-1.50
2018-02-24T05:39:08.062Z,-1.60
2018-02-24T05:41:37.694Z,-1.60
2018-02-24T05:44:06.880Z,-1.60
2018-02-24T05:46:36.154Z,-1.60
2018-02-24T05:49:05.498Z,-1.60
2018-02-24T05:51:34.883Z,-1.60
2018-02-24T05:54:04.476Z,-1.60
2018-02-24T05:56:34.590Z,-1.70
2018-02-24T05:59:03.983Z,-1.70
2018-02-24T06:01:33.331Z,-1.70
2018-02-24T06:04:02.698Z,-1.60
2018-02-24T06:06:32.061Z,-1.70
2018-02-24T06:09:01.430Z,-1.70
2018-02-24T06:11:31.101Z,-1.60
2018-02-24T06:14:00.766Z,-1.60
2018-02-24T06:16:29.830Z,-1.70
2018-02-24T06:18:58.900Z,-1.70
2018-02-24T06:21:28.300Z,-1.70
2018-02-24T06:23:57.610Z,-1.70
2018-02-24T06:26:26.236Z,-1.70
2018-02-24T06:28:55.335Z,-1.70
2018-02-24T06:31:24.693Z,-1.70
2018-02-24T06:33:54.056Z,-1.60
2018-02-24T06:36:22.692Z,-1.50
2018-02-24T06:38:52.772Z,-1.50
2018-02-24T06:41:21.431Z,-1.60
2018-02-24T06:43:50.791Z,-1.60
2018-02-24T06:46:19.869Z,-1.70
2018-02-24T06:48:49.298Z,-1.60
2018-02-24T06:51:19.611Z,-1.70
2018-02-24T06:53:48.983Z,-1.70
2018-02-24T06:56:18.554Z,-1.80
2018-02-24T06:58:48.726Z,-1.80
2018-02-24T07:01:18.082Z,-1.80
2018-02-24T07:03:47.431Z,-1.90
2018-02-24T07:06:16.941Z,-1.90
2018-02-24T07:08:46.163Z,-2.00
2018-02-24T07:11:15.510Z,-1.90
2018-02-24T07:13:45.156Z,-1.80
2018-02-24T07:16:14.238Z,-1.80
2018-02-24T07:18:43.593Z,-1.70
2018-02-24T07:21:12.946Z,-1.80
2018-02-24T07:23:42.322Z,-1.80
2018-02-24T07:26:11.967Z,-1.80
2018-02-24T07:28:41.043Z,-1.80
2018-02-24T07:31:10.629Z,-1.70
2018-02-24T07:33:40.767Z,-1.70
2018-02-24T07:36:10.150Z,-1.70
2018-02-24T07:38:39.485Z,-1.60
2018-02-24T07:41:08.854Z,-1.60
2018-02-24T07:43:38.210Z,-1.60
2018-02-24T07:46:07.566Z,-1.60
2018-02-24T07:48:36.989Z,-1.60
2018-02-24T07:51:06.604Z,-1.60
2018-02-24T07:53:35.651Z,-1.60
2018-02-24T07:56:04.970Z,-1.40
2018-02-24T07:58:34.323Z,-1.40
2018-02-24T08:01:03.683Z,-1.30
2018-02-24T08:03:33.051Z,-1.30
2018-02-24T08:06:02.386Z,-1.30
2018-02-24T08:08:31.756Z,-1.30
2018-02-24T08:11:00.362Z,-1.40
2018-02-24T08:13:29.151Z,-1.30
2018-02-24T08:15:58.099Z,-1.10
2018-02-24T08:18:27.256Z,-1.10
2018-02-24T08:20:56.522Z,-1.10
2018-02-24T08:23:25.882Z,-1.00
2018-02-24T08:25:55.241Z,-1.00
2018-02-24T08:28:25.682Z,-0.90
2018-02-24T08:30:54.966Z,-0.90
2018-02-24T08:33:25.400Z,-1.10
2018-02-24T08:35:54.673Z,-1.00
2018-02-24T08:38:24.032Z,-0.90
2018-02-24T08:40:53.378Z,-0.90
2018-02-24T08:43:22.724Z,-0.90
2018-02-24T08:45:52.074Z,-0.90
2018-02-24T08:48:21.650Z,-0.70
2018-02-24T08:50:51.134Z,-0.70
2018-02-24T08:53:20.406Z,-0.70
2018-02-24T08:55:49.585Z,-0.70
2018-02-24T08:58:18.817Z,-0.60
2018-02-24T09:00:48.158Z,-0.50
2018-02-24T09:03:19.333Z,-0.40
2018-02-24T09:11:54.241Z,-0.40
2018-02-24T09:17:17.280Z,-0.20
2018-02-24T09:19:47.507Z,-0.10
2018-02-24T09:22:16.847Z,-0.10
2018-02-24T09:24:47.513Z,0.30
2018-02-24T09:27:16.561Z,0.20
2018-02-24T09:29:46.850Z,0.10
2018-02-24T09:32:18.975Z,0.30
2018-02-24T09:34:48.919Z,0.00
2018-02-24T09:37:18.065Z,0.00
2018-02-24T09:39:48.363Z,0.10
2018-02-24T09:42:17.704Z,0.20
2018-02-24T09:44:47.035Z,0.10
2018-02-24T09:47:16.755Z,0.20
2018-02-24T09:49:46.738Z,0.30
2018-02-24T09:52:15.349Z,0.30
2018-02-24T09:54:44.429Z,0.40
2018-02-24T09:57:13.789Z,0.40
2018-02-24T09:59:42.566Z,0.40
2018-02-24T10:02:11.684Z,0.30
2018-02-24T10:04:40.814Z,0.30
2018-02-24T10:07:10.179Z,0.40
2018-02-24T10:09:39.545Z,0.30
2018-02-24T10:12:08.859Z,0.40
2018-02-24T10:14:37.586Z,0.30
2018-02-24T10:17:06.554Z,0.20
2018-02-24T10:19:36.906Z,0.50
2018-02-24T10:22:06.257Z,0.50
2018-02-24T10:24:35.006Z,0.70
2018-02-24T10:27:04.204Z,0.90
2018-02-24T10:29:33.294Z,1.00
2018-02-24T10:32:02.635Z,1.10
2018-02-24T10:34:32.266Z,1.10
2018-02-24T10:37:01.013Z,1.10
2018-02-24T10:39:29.759Z,1.10
2018-02-24T10:41:58.543Z,1.40
2018-02-24T10:44:27.521Z,1.40
2018-02-24T10:46:56.255Z,1.20
2018-02-24T10:49:25.206Z,1.30
2018-02-24T10:51:54.381Z,1.30
2018-02-24T10:54:23.091Z,1.40
2018-02-24T10:56:52.774Z,1.50
2018-02-24T10:59:22.543Z,1.60
2018-02-24T11:01:51.274Z,1.60
2018-02-24T11:04:20.222Z,1.80
2018-02-24T11:06:48.977Z,1.80
2018-02-24T11:09:18.053Z,1.70
2018-02-24T11:11:46.841Z,1.80
2018-02-24T11:14:16.570Z,1.60
2018-02-24T11:16:45.319Z,1.60
2018-02-24T11:19:14.258Z,1.70
2018-02-24T11:21:42.954Z,1.80
2018-02-24T11:24:12.864Z,1.30
2018-02-24T11:26:41.622Z,1.30
2018-02-24T11:29:10.293Z,1.40
2018-02-24T11:31:39.238Z,1.40
2018-02-24T11:34:09.371Z,1.10
2018-02-24T11:36:39.589Z,1.10
2018-02-24T11:39:08.475Z,1.00
2018-02-24T11:41:37.200Z,0.90
2018-02-24T11:44:07.286Z,0.90
2018-02-24T11:46:36.260Z,0.90
2018-02-24T11:49:05.138Z,0.70
2018-02-24T11:51:33.823Z,1.00
2018-02-24T11:54:04.029Z,1.10
2018-02-24T11:56:33.628Z,1.10
2018-02-24T11:59:02.337Z,1.10
2018-02-24T12:01:31.094Z,0.80
2018-02-24T12:03:59.846Z,0.80
2018-02-24T12:06:28.535Z,0.80
2018-02-24T12:08:58.028Z,0.50
2018-02-24T12:11:27.378Z,0.60
2018-02-24T12:13:56.721Z,0.50
2018-02-24T12:16:26.074Z,0.60
2018-02-24T12:18:54.845Z,0.50
2018-02-24T12:21:23.543Z,0.50
2018-02-24T12:23:52.371Z,0.20
2018-02-24T12:26:21.845Z,0.30
2018-02-24T12:28:50.236Z,0.20
2018-02-24T12:31:18.929Z,0.30
2018-02-24T12:33:49.478Z,0.30
2018-02-24T12:36:18.834Z,0.20
2018-02-24T12:38:47.370Z,0.00
2018-02-24T12:41:16.231Z,0.00
2018-02-24T12:43:44.974Z,0.00
2018-02-24T12:46:13.630Z,0.00
2018-02-24T12:48:42.653Z,0.00
2018-02-24T12:51:11.312Z,0.00
2018-02-24T12:53:40.785Z,0.10
2018-02-24T12:56:09.504Z,0.10
2018-02-24T12:58:38.942Z,0.10
2018-02-24T13:01:10.206Z,0.10
2018-02-24T13:03:38.948Z,0.20
2018-02-24T13:06:09.018Z,0.10
2018-02-24T13:08:38.365Z,0.00
2018-02-24T13:11:10.011Z,0.10
2018-02-24T13:13:39.778Z,0.00
2018-02-24T13:16:08.771Z,-0.20
2018-02-24T13:18:37.770Z,-0.10
2018-02-24T13:23:46.136Z,0.10
2018-02-24T13:26:15.195Z,0.20
2018-02-24T13:28:44.290Z,0.30
2018-02-24T13:31:13.152Z,0.60
2018-02-24T13:33:41.705Z,0.80
2018-02-24T13:36:11.347Z,1.20
2018-02-24T13:41:32.317Z,1.10
2018-02-24T13:44:01.049Z,1.10
2018-02-24T13:46:34.968Z,1.20
2018-02-24T13:49:04.308Z,1.40
2018-02-24T13:51:33.770Z,1.30
2018-02-24T13:54:03.015Z,1.60
2018-02-24T13:56:31.711Z,1.60
2018-02-24T13:59:00.394Z,1.70
2018-02-24T14:11:44.715Z,1.90
2018-02-24T14:14:13.918Z,1.90
2018-02-24T14:16:42.796Z,1.80
2018-02-24T14:19:11.361Z,1.90
2018-02-24T14:21:40.174Z,2.00
2018-02-24T14:24:08.857Z,1.70
2018-02-24T14:26:37.874Z,1.50
2018-02-24T14:29:07.004Z,1.20
2018-02-24T14:31:36.238Z,1.40
2018-02-24T14:34:04.984Z,1.60
2018-02-24T14:36:34.506Z,1.70
2018-02-24T14:39:03.024Z,1.70
2018-02-24T15:12:59.137Z,1.00
2018-02-24T15:15:28.626Z,0.70
2018-02-24T15:17:57.381Z,0.60
2018-02-24T15:20:25.947Z,0.60
2018-02-24T15:22:55.206Z,0.50
2018-02-24T15:25:23.723Z,0.40
2018-02-24T15:27:53.944Z,0.00
2018-02-24T15:30:22.973Z,-0.10
2018-02-24T15:32:52.699Z,-0.10
2018-02-24T15:35:21.540Z,-0.20
2018-02-24T15:37:53.578Z,-0.30
2018-02-24T15:40:23.391Z,-0.40
2018-02-24T15:42:52.992Z,-0.60
2018-02-24T15:45:21.728Z,-0.60
2018-02-24T15:47:51.427Z,-0.70
2018-02-24T15:50:22.477Z,-0.70
2018-02-24T15:52:51.251Z,-0.70
2018-02-24T15:55:20.773Z,-0.90
2018-02-24T15:57:49.533Z,-0.90
2018-02-24T16:00:18.201Z,-1.10
2018-02-24T16:02:46.909Z,-1.10
2018-02-24T16:05:15.598Z,-1.10
2018-02-24T16:07:44.339Z,-1.20
2018-02-24T16:10:13.160Z,-1.30
2018-02-24T16:12:41.699Z,-1.40
2018-02-24T16:15:10.373Z,-1.40
2018-02-24T16:17:39.074Z,-1.50
2018-02-24T16:20:07.757Z,-1.60
2018-02-24T16:22:36.442Z,-1.50
2018-02-24T16:25:04.951Z,-1.70
2018-02-24T16:27:33.733Z,-1.70
2018-02-24T16:30:02.480Z,-1.70
2018-02-24T16:32:31.928Z,-1.80
2018-02-24T16:35:02.676Z,-1.80
2018-02-24T16:37:31.538Z,-1.80
2018-02-24T16:40:00.232Z,-1.90
2018-02-24T16:42:29.305Z,-1.90
2018-02-24T16:44:58.224Z,-1.90
2018-02-24T16:47:28.330Z,-2.00
2018-02-24T16:49:58.681Z,-2.00
2018-02-24T16:52:28.437Z,-2.00
2018-02-24T16:54:58.995Z,-2.10
2018-02-24T16:57:28.536Z,-2.20
2018-02-24T16:59:57.323Z,-2.20
2018-02-24T17:02:26.051Z,-2.10
2018-02-24T17:04:54.752Z,-2.20
2018-02-24T17:07:24.710Z,-2.30
2018-02-24T17:09:54.438Z,-2.30
2018-02-24T17:12:23.991Z,-2.30
2018-02-24T17:18:32.757Z,-2.30
2018-02-24T17:21:07.521Z,-2.30
2018-02-24T17:23:39.014Z,-2.40
2018-02-24T17:26:12.168Z,-2.40
2018-02-24T17:31:29.844Z,-2.40
2018-02-24T17:36:35.204Z,-2.50
2018-02-24T17:39:14.828Z,-2.50
2018-02-24T17:41:45.590Z,-2.50
2018-02-24T17:44:20.992Z,-2.60
2018-02-24T17:50:38.225Z,-2.60
2018-02-24T17:53:07.224Z,-2.60
2018-02-24T17:55:36.886Z,-2.70
2018-02-24T17:58:06.743Z,-2.70
2018-02-24T18:00:35.474Z,-2.70
2018-02-24T18:03:04.970Z,-2.70
2018-02-24T18:08:11.910Z,-2.70
2018-02-24T18:10:41.206Z,-2.70
2018-02-24T18:13:10.722Z,-2.70
2018-02-24T18:15:39.478Z,-2.70
2018-02-24T18:18:08.372Z,-2.70
2018-02-24T18:20:37.623Z,-2.70
2018-02-24T18:23:06.861Z,-2.60
2018-02-24T18:25:36.169Z,-2.50
2018-02-24T18:28:06.215Z,-2.70
2018-02-24T18:44:02.331Z,-2.90
2018-02-24T18:46:31.903Z,-2.90
2018-02-24T18:49:01.010Z,-2.90
2018-02-24T18:51:29.958Z,-3.00
2018-02-24T18:54:01.585Z,-3.00
2018-02-24T18:59:10.426Z,-3.20
2018-02-24T19:01:39.928Z,-3.20
2018-02-24T19:04:09.709Z,-3.10
2018-02-24T19:06:39.429Z,-3.20
2018-02-24T19:09:08.485Z,-3.10
2018-02-24T19:11:37.352Z,-3.10
2018-02-24T19:14:05.998Z,-3.10
2018-02-24T19:16:34.862Z,-3.30
2018-02-24T19:19:03.626Z,-3.40
2018-02-24T19:21:32.236Z,-3.40
2018-02-24T19:24:01.161Z,-3.40
2018-02-24T19:26:29.946Z,-3.40
2018-02-24T19:28:58.697Z,-3.20
2018-02-24T19:31:27.464Z,-3.20
2018-02-24T19:33:56.149Z,-3.20
2018-02-24T19:36:25.003Z,-3.20
2018-02-24T19:38:53.775Z,-3.30
2018-02-24T19:41:23.271Z,-3.30
2018-02-24T19:43:52.022Z,-3.40
2018-02-24T19:46:20.722Z,-3.40
2018-02-24T19:48:49.422Z,-3.40
2018-02-24T19:51:18.177Z,-3.40
2018-02-24T19:53:54.485Z,-3.40
2018-02-24T19:56:23.235Z,-3.50
2018-02-24T19:58:52.056Z,-3.50
2018-02-24T20:01:20.736Z,-3.60
2018-02-24T20:03:49.418Z,-3.60
2018-02-24T20:06:18.165Z,-3.60
2018-02-24T20:08:47.948Z,-3.60
2018-02-24T20:11:16.943Z,-3.70
2018-02-24T20:13:46.482Z,-3.70
2018-02-24T20:16:15.989Z,-3.80
2018-02-24T20:18:44.204Z,-3.80
2018-02-24T20:21:12.915Z,-3.80
2018-02-24T20:23:44.471Z,-3.80
2018-02-24T20:26:13.546Z,-3.90
2018-02-24T20:28:43.042Z,-3.90
2018-02-24T20:31:12.095Z,-3.90
2018-02-24T20:33:42.451Z,-3.90
2018-02-24T20:36:11.434Z,-3.90
2018-02-24T20:38:40.430Z,-4.00
2018-02-24T20:41:09.202Z,-4.00
2018-02-24T20:43:39.003Z,-4.00
2018-02-24T20:46:07.646Z,-4.10
2018-02-24T20:48:36.776Z,-4.10
2018-02-24T20:51:06.006Z,-4.10
2018-02-24T20:53:35.835Z,-4.00
2018-02-24T20:56:04.821Z,-4.10
2018-02-24T20:58:34.526Z,-4.10
2018-02-24T21:01:04.041Z,-4.10
2018-02-24T21:03:32.687Z,-4.10
2018-02-24T21:06:01.713Z,-4.20
2018-02-24T21:08:32.292Z,-4.30
2018-02-24T21:11:01.493Z,-4.30
2018-02-24T21:13:30.359Z,-4.30
2018-02-24T21:15:59.133Z,-4.40
2018-02-24T21:18:28.727Z,-4.40
2018-02-24T21:20:58.198Z,-4.30
2018-02-24T21:23:27.233Z,-4.40
2018-02-24T21:25:57.655Z,-4.40
2018-02-24T21:28:26.792Z,-4.50
2018-02-24T21:30:55.852Z,-4.50
2018-02-24T21:33:25.593Z,-4.60
2018-02-24T21:35:54.194Z,-4.60
2018-02-24T21:38:22.922Z,-4.60
2018-02-24T21:40:51.895Z,-4.60
2018-02-24T21:43:20.751Z,-4.70
2018-02-24T21:45:49.511Z,-4.70
2018-02-24T21:48:18.298Z,-4.70
2018-02-24T21:50:47.790Z,-4.80
2018-02-24T21:53:16.924Z,-4.80
2018-02-24T21:58:23.285Z,-4.90
2018-02-24T22:00:53.062Z,-4.90
2018-02-24T22:03:23.010Z,-4.90
2018-02-24T22:05:52.957Z,-5.00
2018-02-24T22:08:22.388Z,-5.00
2018-02-24T22:10:52.270Z,-5.10
2018-02-24T22:13:22.063Z,-5.10
2018-02-24T22:15:51.612Z,-5.20
2018-02-24T22:18:21.534Z,-5.30
2018-02-24T22:20:50.595Z,-5.30
2018-02-24T22:23:27.308Z,-5.30
2018-02-24T22:25:57.971Z,-5.30
2018-02-24T22:28:37.141Z,-5.40
2018-02-24T22:31:06.648Z,-5.50
2018-02-24T22:33:36.315Z,-5.50
2018-02-24T22:36:05.303Z,-5.60
2018-02-24T22:38:34.263Z,-5.60
2018-02-24T22:41:03.077Z,-5.60
2018-02-24T22:43:32.517Z,-5.70
2018-02-24T22:46:02.454Z,-5.60
2018-02-24T22:48:37.165Z,-5.50
2018-02-24T22:51:06.264Z,-5.70
2018-02-24T22:53:35.732Z,-5.80
2018-02-24T22:56:04.809Z,-5.90
2018-02-24T22:58:34.306Z,-6.00
2018-02-24T23:01:04.020Z,-6.10
2018-02-24T23:03:33.175Z,-6.20
2018-02-24T23:06:02.639Z,-6.20
2018-02-24T23:08:31.699Z,-6.30
2018-02-24T23:11:01.538Z,-6.30
2018-02-24T23:13:30.976Z,-6.40
2018-02-24T23:15:59.921Z,-6.40
2018-02-24T23:18:28.808Z,-6.60
2018-02-24T23:20:58.598Z,-6.90
2018-02-24T23:23:27.375Z,-6.90
2018-02-24T23:25:56.116Z,-7.30
2018-02-24T23:28:24.896Z,-7.50
2018-02-24T23:30:55.429Z,-7.60
2018-02-24T23:33:24.467Z,-7.60
2018-02-24T23:35:53.363Z,-7.50
2018-02-24T23:38:22.097Z,-7.70
2018-02-24T23:40:50.783Z,-7.80
2018-02-24T23:43:20.301Z,-8.00
2018-02-24T23:45:49.050Z,-8.00
2018-02-24T23:48:18.454Z,-8.10
2018-02-24T23:50:47.165Z,-8.10
2018-02-24T23:53:15.854Z,-8.00
2018-02-24T23:55:45.166Z,-7.90
2018-02-24T23:58:14.895Z,-7.80
